createdAt,value
2023-06-02T00:00:10.834Z,80.74
2023-06-02T00:01:10.807Z,79.72
2023-06-02T00:02:10.839Z,80.02
2023-06-02T00:03:10.850Z,78.84
2023-06-02T00:04:10.789Z,80.07
2023-06-02T00:05:10.856Z,79.75
2023-06-02T00:06:10.781Z,80.07
2023-06-02T00:07:10.754Z,79.45
2023-06-02T00:08:10.754Z,79.45
2023-06-02T00:09:10.753Z,79.55
2023-06-02T00:10:10.742Z,80.16
2023-06-02T00:11:10.757Z,79.35
2023-06-02T00:12:10.714Z,79.45
2023-06-02T00:13:10.716Z,79.55
2023-06-02T00:14:10.700Z,80.07
2023-06-02T00:15:10.729Z,80.07
2023-06-02T00:16:10.721Z,79.55
2023-06-02T00:17:10.705Z,79.55
2023-06-02T00:18:10.676Z,79.35
2023-06-02T00:19:11.407Z,79.35
2023-06-02T00:20:10.683Z,79.49
2023-06-02T00:21:10.640Z,80.27
2023-06-02T00:22:10.632Z,78.64
2023-06-02T00:23:10.628Z,79.04
2023-06-02T00:24:10.619Z,80.07
2023-06-02T00:25:10.603Z,78.84
2023-06-02T00:26:10.628Z,78.74
2023-06-02T00:27:10.583Z,78.74
2023-06-02T00:28:10.574Z,78.74
2023-06-02T00:29:10.561Z,78.53
2023-06-02T00:30:10.565Z,78.33
2023-06-02T00:31:10.575Z,78.53
2023-06-02T00:32:10.578Z,77.92
2023-06-02T00:33:10.537Z,78.33
2023-06-02T00:34:10.544Z,78.43
2023-06-02T00:35:10.529Z,78.33
2023-06-02T00:36:10.945Z,78.53
2023-06-02T00:37:10.516Z,78.43
2023-06-02T00:38:10.547Z,78.94
2023-06-02T00:39:10.511Z,78.43
2023-06-02T00:40:10.486Z,78.33
2023-06-02T00:41:10.471Z,78.53
2023-06-02T00:42:10.471Z,78.43
2023-06-02T00:43:10.486Z,78.53
2023-06-02T00:44:10.501Z,78.23
2023-06-02T00:45:10.446Z,78.33
2023-06-02T00:46:10.639Z,78.02
2023-06-02T00:47:10.425Z,78.02
2023-06-02T00:48:10.428Z,78.33
2023-06-02T00:49:10.413Z,78.80
2023-06-02T00:50:10.465Z,78.50
2023-06-02T00:51:10.410Z,78.23
2023-06-02T00:52:10.393Z,77.92
2023-06-02T00:53:10.385Z,77.92
2023-06-02T00:54:10.385Z,78.23
2023-06-02T00:55:10.370Z,78.33
2023-06-02T00:56:10.384Z,78.77
2023-06-02T00:57:10.389Z,79.59
2023-06-02T00:58:10.401Z,79.59
2023-06-02T00:59:10.331Z,79.80
2023-06-02T01:00:10.342Z,79.75
2023-06-02T01:01:10.444Z,78.88
2023-06-02T01:02:10.331Z,78.77
2023-06-02T01:03:10.410Z,78.67
2023-06-02T01:04:10.309Z,79.08
2023-06-02T01:05:10.276Z,80.20
2023-06-02T01:06:10.287Z,80.30
2023-06-02T01:07:10.277Z,79.59
2023-06-02T01:08:10.260Z,78.77
2023-06-02T01:09:10.291Z,79.59
2023-06-02T01:10:10.259Z,79.08
2023-06-02T01:11:10.245Z,78.64
2023-06-02T01:12:10.340Z,79.55
2023-06-02T01:13:10.236Z,78.74
2023-06-02T01:14:10.232Z,78.57
2023-06-02T01:15:10.314Z,79.28
2023-06-02T01:16:10.254Z,79.18
2023-06-02T01:17:10.241Z,79.39
2023-06-02T01:18:10.203Z,78.88
2023-06-02T01:19:10.186Z,78.88
2023-06-02T01:20:10.181Z,79.08
2023-06-02T01:21:10.156Z,78.88
2023-06-02T01:22:10.237Z,78.43
2023-06-02T01:23:10.167Z,79.69
2023-06-02T01:24:10.190Z,78.98
2023-06-02T01:25:10.125Z,80.10
2023-06-02T01:26:10.572Z,79.18
2023-06-02T01:27:10.115Z,79.28
2023-06-02T01:28:10.117Z,79.69
2023-06-02T01:29:10.121Z,79.49
2023-06-02T01:30:10.144Z,78.88
2023-06-02T01:31:10.088Z,78.57
2023-06-02T01:32:10.159Z,79.14
2023-06-02T01:33:10.086Z,78.88
2023-06-02T01:34:17.603Z,78.67
2023-06-02T01:35:10.073Z,78.94
2023-06-02T01:36:10.054Z,78.67
2023-06-02T01:37:10.046Z,78.77
2023-06-02T01:38:10.033Z,79.18
2023-06-02T01:39:10.038Z,79.59
2023-06-02T01:40:10.030Z,80.44
2023-06-02T01:41:10.101Z,79.49
2023-06-02T01:42:10.034Z,79.18
2023-06-02T01:43:10.035Z,79.49
2023-06-02T01:44:10.050Z,80.24
2023-06-02T01:45:09.997Z,80.04
2023-06-02T01:46:09.993Z,80.00
2023-06-02T01:47:10.021Z,79.63
2023-06-02T01:48:09.953Z,80.14
2023-06-02T01:49:09.944Z,80.04
2023-06-02T01:50:09.941Z,79.52
2023-06-02T01:51:09.938Z,80.34
2023-06-02T01:52:10.008Z,79.83
2023-06-02T01:53:09.964Z,80.44
2023-06-02T01:54:09.917Z,79.80
2023-06-02T01:55:09.923Z,79.39
2023-06-02T01:56:09.883Z,79.49
2023-06-02T01:57:09.895Z,78.81
2023-06-02T01:58:09.928Z,79.63
2023-06-02T01:59:09.886Z,79.28
2023-06-02T02:00:09.877Z,79.32
2023-06-02T02:01:09.852Z,79.73
2023-06-02T02:02:09.861Z,79.83
2023-06-02T02:03:09.955Z,79.73
2023-06-02T02:04:09.866Z,79.63
2023-06-02T02:05:09.829Z,79.63
2023-06-02T02:06:09.878Z,80.34
2023-06-02T02:07:09.805Z,80.48
2023-06-02T02:08:09.803Z,79.73
2023-06-02T02:09:09.797Z,79.12
2023-06-02T02:10:09.836Z,78.71
2023-06-02T02:11:09.782Z,78.57
2023-06-02T02:12:09.777Z,79.43
2023-06-02T02:13:09.774Z,79.12
2023-06-02T02:14:09.768Z,78.91
2023-06-02T02:15:09.812Z,78.91
2023-06-02T02:16:09.857Z,79.22
2023-06-02T02:17:10.442Z,78.77
2023-06-02T02:18:09.757Z,78.71
2023-06-02T02:19:09.730Z,79.52
2023-06-02T02:20:09.751Z,79.52
2023-06-02T02:21:09.777Z,79.08
2023-06-02T02:22:09.733Z,78.57
2023-06-02T02:23:09.771Z,78.71
2023-06-02T02:24:09.791Z,78.41
2023-06-02T02:25:09.706Z,79.57
2023-06-02T02:26:09.684Z,80.28
2023-06-02T02:27:09.679Z,79.57
2023-06-02T02:28:09.687Z,79.46
2023-06-02T02:29:09.624Z,80.38
2023-06-02T02:30:09.630Z,79.80
2023-06-02T02:31:09.778Z,80.52
2023-06-02T02:32:09.615Z,80.52
2023-06-02T02:33:09.660Z,80.89
2023-06-02T02:34:09.605Z,80.01
2023-06-02T02:35:09.577Z,80.83
2023-06-02T02:36:09.671Z,80.42
2023-06-02T02:37:09.561Z,80.52
2023-06-02T02:38:09.636Z,80.42
2023-06-02T02:39:09.575Z,81.34
2023-06-02T02:40:10.458Z,81.13
2023-06-02T02:41:09.530Z,80.62
2023-06-02T02:42:09.579Z,81.03
2023-06-02T02:43:10.385Z,80.73
2023-06-02T02:44:10.457Z,80.32
2023-06-02T02:45:09.722Z,80.01
2023-06-02T02:46:10.490Z,80.32
2023-06-02T02:47:09.533Z,80.32
2023-06-02T02:48:09.540Z,80.21
2023-06-02T02:49:09.508Z,81.38
2023-06-02T02:50:09.501Z,80.93
2023-06-02T02:51:09.512Z,81.07
2023-06-02T02:52:09.465Z,80.66
2023-06-02T02:53:09.476Z,80.66
2023-06-02T02:54:09.466Z,80.35
2023-06-02T02:55:09.534Z,80.83
2023-06-02T02:56:09.433Z,80.83
2023-06-02T02:57:09.417Z,80.66
2023-06-02T02:58:09.496Z,80.87
2023-06-02T02:59:09.546Z,80.35
2023-06-02T03:00:09.393Z,80.73
2023-06-02T03:01:09.445Z,80.87
2023-06-02T03:02:09.368Z,81.27
2023-06-02T03:03:09.356Z,81.27
2023-06-02T03:04:09.476Z,80.66
2023-06-02T03:05:09.385Z,80.52
2023-06-02T03:06:09.354Z,80.76
2023-06-02T03:07:10.993Z,80.52
2023-06-02T03:08:09.317Z,80.46
2023-06-02T03:09:09.334Z,80.66
2023-06-02T03:10:09.347Z,81.07
2023-06-02T03:11:09.303Z,80.15
2023-06-02T03:12:09.352Z,80.97
2023-06-02T03:13:09.316Z,80.46
2023-06-02T03:14:09.270Z,80.56
2023-06-02T03:15:09.263Z,80.66
2023-06-02T03:16:09.334Z,80.05
2023-06-02T03:17:09.422Z,80.56
2023-06-02T03:18:09.239Z,79.16
2023-06-02T03:19:09.264Z,79.27
2023-06-02T03:20:09.232Z,79.64
2023-06-02T03:21:09.225Z,79.02
2023-06-02T03:22:09.397Z,79.53
2023-06-02T03:23:09.222Z,78.75
2023-06-02T03:24:09.180Z,78.72
2023-06-02T03:25:09.194Z,79.23
2023-06-02T03:26:09.172Z,78.52
2023-06-02T03:27:09.172Z,78.82
2023-06-02T03:28:09.223Z,79.16
2023-06-02T03:29:09.161Z,79.16
2023-06-02T03:30:09.130Z,78.92
2023-06-02T03:31:09.226Z,78.82
2023-06-02T03:32:09.155Z,78.68
2023-06-02T03:33:09.215Z,78.27
2023-06-02T03:34:09.197Z,78.17
2023-06-02T03:35:09.107Z,78.48
2023-06-02T03:36:09.139Z,78.82
2023-06-02T03:37:09.121Z,78.52
2023-06-02T03:38:09.100Z,78.68
2023-06-02T03:39:09.137Z,78.82
2023-06-02T03:40:09.069Z,79.13
2023-06-02T03:41:09.070Z,78.48
2023-06-02T03:42:09.132Z,78.61
2023-06-02T03:43:09.100Z,79.13
2023-06-02T03:44:09.037Z,79.23
2023-06-02T03:45:09.031Z,78.72
2023-06-02T03:46:09.053Z,78.92
2023-06-02T03:47:09.013Z,79.84
2023-06-02T03:48:09.035Z,78.61
2023-06-02T03:49:09.006Z,78.86
2023-06-02T03:50:09.028Z,79.43
2023-06-02T03:51:10.272Z,79.53
2023-06-02T03:52:08.971Z,79.43
2023-06-02T03:53:08.976Z,78.82
2023-06-02T03:54:08.974Z,79.78
2023-06-02T03:55:09.015Z,80.35
2023-06-02T03:56:08.962Z,79.02
2023-06-02T03:57:08.955Z,79.64
2023-06-02T03:58:08.930Z,79.74
2023-06-02T03:59:08.967Z,79.64
2023-06-02T04:00:08.959Z,79.64
2023-06-02T04:01:08.912Z,80.49
2023-06-02T04:02:08.950Z,80.56
2023-06-02T04:03:08.958Z,79.94
2023-06-02T04:04:08.912Z,80.46
2023-06-02T04:05:08.958Z,79.53
2023-06-02T04:06:08.916Z,80.05
2023-06-02T04:07:08.861Z,80.46
2023-06-02T04:08:08.847Z,79.74
2023-06-02T04:09:08.865Z,80.60
2023-06-02T04:10:08.827Z,79.64
2023-06-02T04:11:08.830Z,80.05
2023-06-02T04:12:08.840Z,80.08
2023-06-02T04:13:08.822Z,79.94
2023-06-02T04:14:08.801Z,80.97
2023-06-02T04:15:08.811Z,80.46
2023-06-02T04:16:09.027Z,80.25
2023-06-02T04:17:08.787Z,80.35
2023-06-02T04:18:08.819Z,80.56
2023-06-02T04:19:08.765Z,80.05
2023-06-02T04:20:08.750Z,80.32
2023-06-02T04:21:08.762Z,79.39
2023-06-02T04:22:08.754Z,80.66
2023-06-02T04:23:08.753Z,80.15
2023-06-02T04:24:08.729Z,80.66
2023-06-02T04:25:08.732Z,80.87
2023-06-02T04:26:10.409Z,80.25
2023-06-02T04:27:08.775Z,80.25
2023-06-02T04:28:08.695Z,80.01
2023-06-02T04:29:09.019Z,80.05
2023-06-02T04:30:08.720Z,79.80
2023-06-02T04:31:08.701Z,80.15
2023-06-02T04:32:08.758Z,80.62
2023-06-02T04:33:08.676Z,79.84
2023-06-02T04:34:08.669Z,80.46
2023-06-02T04:35:08.637Z,79.84
2023-06-02T04:36:08.679Z,80.46
2023-06-02T04:37:08.635Z,80.35
2023-06-02T04:38:08.597Z,80.29
2023-06-02T04:39:08.600Z,80.66
2023-06-02T04:40:08.585Z,80.97
2023-06-02T04:41:08.641Z,79.74
2023-06-02T04:42:08.565Z,79.64
2023-06-02T04:43:08.573Z,80.35
2023-06-02T04:44:08.563Z,80.60
2023-06-02T04:45:08.566Z,80.08
2023-06-02T04:46:08.581Z,80.56
2023-06-02T04:47:08.578Z,80.25
2023-06-02T04:48:08.543Z,80.29
2023-06-02T04:49:08.530Z,79.43
2023-06-02T04:50:08.542Z,79.84
2023-06-02T04:51:08.517Z,80.05
2023-06-02T04:52:08.485Z,79.43
2023-06-02T04:53:08.568Z,80.66
2023-06-02T04:54:08.575Z,79.64
2023-06-02T04:55:08.507Z,79.84
2023-06-02T04:56:08.489Z,79.64
2023-06-02T04:57:08.462Z,80.05
2023-06-02T04:58:08.467Z,79.02
2023-06-02T04:59:08.561Z,79.68
2023-06-02T05:00:08.461Z,80.08
2023-06-02T05:01:08.435Z,79.78
2023-06-02T05:02:08.634Z,80.39
2023-06-02T05:03:08.486Z,80.39
2023-06-02T05:04:08.435Z,80.56
2023-06-02T05:05:08.488Z,79.94
2023-06-02T05:06:08.609Z,78.61
2023-06-02T05:07:08.414Z,79.88
2023-06-02T05:08:08.439Z,79.37
2023-06-02T05:09:08.399Z,79.68
2023-06-02T05:10:08.347Z,80.69
2023-06-02T05:11:09.041Z,80.29
2023-06-02T05:12:08.324Z,80.25
2023-06-02T05:13:08.350Z,79.64
2023-06-02T05:14:08.320Z,79.02
2023-06-02T05:15:08.318Z,78.48
2023-06-02T05:16:08.727Z,78.88
2023-06-02T05:17:08.858Z,78.92
2023-06-02T05:18:08.323Z,78.72
2023-06-02T05:19:08.278Z,78.61
2023-06-02T05:20:08.465Z,79.23
2023-06-02T05:21:08.284Z,79.02
2023-06-02T05:22:08.250Z,79.64
2023-06-02T05:23:08.293Z,78.11
2023-06-02T05:24:08.565Z,79.23
2023-06-02T05:25:10.938Z,79.13
2023-06-02T05:26:08.229Z,78.82
2023-06-02T05:27:08.219Z,78.82
2023-06-02T05:28:08.197Z,78.07
2023-06-02T05:29:08.276Z,78.27
2023-06-02T05:30:08.182Z,78.72
2023-06-02T05:31:08.212Z,78.52
2023-06-02T05:32:08.189Z,78.31
2023-06-02T05:33:08.162Z,78.86
2023-06-02T05:34:08.217Z,79.06
2023-06-02T05:35:08.249Z,79.13
2023-06-02T05:36:08.150Z,78.72
2023-06-02T05:37:08.129Z,78.52
2023-06-02T05:38:08.107Z,78.61
2023-06-02T05:39:08.153Z,77.76
2023-06-02T05:40:08.187Z,78.72
2023-06-02T05:41:08.141Z,78.61
2023-06-02T05:42:08.100Z,78.52
2023-06-02T05:43:08.092Z,78.72
2023-06-02T05:44:08.085Z,78.52
2023-06-02T05:45:08.072Z,78.52
2023-06-02T05:46:08.287Z,79.47
2023-06-02T05:47:08.104Z,77.90
2023-06-02T05:48:08.075Z,77.59
2023-06-02T05:49:08.050Z,78.52
2023-06-02T05:50:09.296Z,78.20
2023-06-02T05:51:08.012Z,78.48
2023-06-02T05:52:07.991Z,78.41
2023-06-02T05:53:08.008Z,78.11
2023-06-02T05:54:07.978Z,78.34
2023-06-02T05:55:08.022Z,78.75
2023-06-02T05:56:07.962Z,78.52
2023-06-02T05:57:07.964Z,78.31
2023-06-02T05:58:07.990Z,78.61
2023-06-02T05:59:07.950Z,78.20
2023-06-02T06:00:08.003Z,77.66
2023-06-02T06:01:07.943Z,77.76
2023-06-02T06:02:07.933Z,77.49
2023-06-02T06:03:08.042Z,77.19
2023-06-02T06:04:07.959Z,77.35
2023-06-02T06:05:07.901Z,76.57
2023-06-02T06:06:07.986Z,77.49
2023-06-02T06:07:07.897Z,76.98
2023-06-02T06:08:07.878Z,76.98
2023-06-02T06:09:07.878Z,77.49
2023-06-02T06:10:07.855Z,76.16
2023-06-02T06:11:07.866Z,76.84
2023-06-02T06:12:07.881Z,76.53
2023-06-02T06:13:07.871Z,76.12
2023-06-02T06:14:07.839Z,77.59
2023-06-02T06:15:07.830Z,75.99
2023-06-02T06:16:08.556Z,74.87
2023-06-02T06:17:07.839Z,75.92
2023-06-02T06:18:07.865Z,76.43
2023-06-02T06:19:07.823Z,77.08
2023-06-02T06:20:07.784Z,76.23
2023-06-02T06:21:07.796Z,75.37
2023-06-02T06:22:08.158Z,75.89
2023-06-02T06:23:07.781Z,74.25
2023-06-02T06:24:07.778Z,75.82
2023-06-02T06:25:07.745Z,75.51
2023-06-02T06:26:07.722Z,76.09
2023-06-02T06:27:09.626Z,74.08
2023-06-02T06:28:07.802Z,73.91
2023-06-02T06:29:07.713Z,74.05
2023-06-02T06:30:07.784Z,74.63
2023-06-02T06:31:07.737Z,74.73
2023-06-02T06:32:07.765Z,75.34
2023-06-02T06:33:07.696Z,75.24
2023-06-02T06:34:07.800Z,75.21
2023-06-02T06:35:07.740Z,74.56
2023-06-02T06:36:07.649Z,74.11
2023-06-02T06:37:07.664Z,72.34
2023-06-02T06:38:07.639Z,71.80
2023-06-02T06:39:07.649Z,71.84
2023-06-02T06:40:07.619Z,71.29
2023-06-02T06:41:07.674Z,71.63
2023-06-02T06:42:07.597Z,71.50
2023-06-02T06:43:15.541Z,71.63
2023-06-02T06:44:08.584Z,71.60
2023-06-02T06:45:07.597Z,71.50
2023-06-02T06:46:07.565Z,71.60
2023-06-02T06:47:07.597Z,70.17
2023-06-02T06:48:07.664Z,72.14
2023-06-02T06:49:07.555Z,70.61
2023-06-02T06:50:07.559Z,71.22
2023-06-02T06:51:07.634Z,71.39
2023-06-02T06:52:07.572Z,72.99
2023-06-02T06:53:07.530Z,70.48
2023-06-02T06:54:08.562Z,71.73
2023-06-02T06:55:07.506Z,71.33
2023-06-02T06:56:07.608Z,70.20
2023-06-02T06:57:07.507Z,70.17
2023-06-02T06:58:07.492Z,70.24
2023-06-02T06:59:07.467Z,70.14
2023-06-02T07:00:07.581Z,71.73
2023-06-02T07:01:07.455Z,70.64
2023-06-02T07:02:07.570Z,71.67
2023-06-02T07:03:07.571Z,71.39
2023-06-02T07:04:07.527Z,69.73
2023-06-02T07:05:07.434Z,69.67
2023-06-02T07:06:07.407Z,66.68
2023-06-02T07:07:07.418Z,67.12
2023-06-02T07:08:07.399Z,66.00
2023-06-02T07:09:07.503Z,67.63
2023-06-02T07:10:07.423Z,66.61
2023-06-02T07:11:07.359Z,65.97
2023-06-02T07:12:07.370Z,66.99
2023-06-02T07:13:07.570Z,67.19
2023-06-02T07:14:16.101Z,67.90
2023-06-02T07:15:08.362Z,67.55
2023-06-02T07:16:07.368Z,68.31
2023-06-02T07:17:07.334Z,65.33
2023-06-02T07:18:07.379Z,67.29
2023-06-02T07:19:07.295Z,69.79
2023-06-02T07:20:07.309Z,70.04
2023-06-02T07:21:07.344Z,67.49
2023-06-02T07:22:07.415Z,68.04
2023-06-02T07:23:07.288Z,67.93
2023-06-02T07:24:07.291Z,68.44
2023-06-02T07:25:07.264Z,67.83
2023-06-02T07:26:07.274Z,68.07
2023-06-02T07:27:07.264Z,67.79
2023-06-02T07:28:07.235Z,67.21
2023-06-02T07:29:07.220Z,68.16
2023-06-02T07:30:07.307Z,69.11
2023-06-02T07:31:10.460Z,69.76
2023-06-02T07:32:07.326Z,68.37
2023-06-02T07:33:07.218Z,69.79
2023-06-02T07:34:07.206Z,70.10
2023-06-02T07:35:07.266Z,68.26
2023-06-02T07:36:07.203Z,70.23
2023-06-02T07:37:07.177Z,70.71
2023-06-02T07:38:07.220Z,71.22
2023-06-02T07:39:07.147Z,71.56
2023-06-02T07:40:07.150Z,70.17
2023-06-02T07:41:07.140Z,67.99
2023-06-02T07:42:07.155Z,68.30
2023-06-02T07:43:07.103Z,68.77
2023-06-02T07:44:07.162Z,68.91
2023-06-02T07:45:07.088Z,68.81
2023-06-02T07:46:07.284Z,68.10
2023-06-02T07:47:07.130Z,70.07
2023-06-02T07:48:07.165Z,70.00
2023-06-02T07:49:07.055Z,70.20
2023-06-02T07:50:07.074Z,70.44
2023-06-02T07:51:07.045Z,68.24
2023-06-02T07:52:07.071Z,69.02
2023-06-02T07:53:16.059Z,69.35
2023-06-02T07:54:07.038Z,69.90
2023-06-02T07:55:07.640Z,70.27
2023-06-02T07:56:07.335Z,69.70
2023-06-02T07:57:07.008Z,69.46
2023-06-02T07:58:07.006Z,70.34
2023-06-02T07:59:06.980Z,69.53
2023-06-02T08:00:06.998Z,68.91
2023-06-02T08:01:07.179Z,70.31
2023-06-02T08:02:06.985Z,68.85
2023-06-02T08:03:07.134Z,68.82
2023-06-02T08:04:07.118Z,68.01
2023-06-02T08:05:06.967Z,67.52
2023-06-02T08:06:06.929Z,68.91
2023-06-02T08:07:06.902Z,69.56
2023-06-02T08:08:07.986Z,68.13
2023-06-02T08:09:06.933Z,68.54
2023-06-02T08:10:06.995Z,65.91
2023-06-02T08:11:06.856Z,65.30
2023-06-02T08:12:06.877Z,65.83
2023-06-02T08:13:06.865Z,66.88
2023-06-02T08:14:06.850Z,67.69
2023-06-02T08:15:06.844Z,67.87
2023-06-02T08:17:06.833Z,65.26
2023-06-02T08:18:06.927Z,64.86
2023-06-02T08:19:06.923Z,65.16
2023-06-02T08:20:06.785Z,68.24
2023-06-02T08:21:06.839Z,67.91
2023-06-02T08:22:06.777Z,66.41
2023-06-02T08:23:06.764Z,65.91
2023-06-02T08:24:06.750Z,66.11
2023-06-02T08:25:06.753Z,65.50
2023-06-02T08:26:06.741Z,65.70
2023-06-02T08:27:06.718Z,65.60
2023-06-02T08:28:06.816Z,64.79
2023-06-02T08:29:06.703Z,66.20
2023-06-02T08:30:06.726Z,67.52
2023-06-02T08:31:06.719Z,68.54
2023-06-02T08:32:08.170Z,66.99
2023-06-02T08:33:06.716Z,66.82
2023-06-02T08:34:06.668Z,67.32
2023-06-02T08:35:06.702Z,67.29
2023-06-02T08:36:06.822Z,66.07
2023-06-02T08:37:06.632Z,67.39
2023-06-02T08:38:06.647Z,68.51
2023-06-02T08:39:06.609Z,67.94
2023-06-02T08:40:06.646Z,67.26
2023-06-02T08:41:06.757Z,66.61
2023-06-02T08:42:06.628Z,65.00
2023-06-02T08:43:06.666Z,64.26
2023-06-02T08:44:06.599Z,66.16
2023-06-02T08:45:06.566Z,63.49
2023-06-02T08:46:06.603Z,61.10
2023-06-02T08:47:06.554Z,63.34
2023-06-02T08:48:06.685Z,64.18
2023-06-02T08:49:06.527Z,65.03
2023-06-02T08:50:06.575Z,65.06
2023-06-02T08:51:06.516Z,65.84
2023-06-02T08:52:06.509Z,62.10
2023-06-02T08:53:06.498Z,62.07
2023-06-02T08:54:06.499Z,64.96
2023-06-02T08:55:06.484Z,64.65
2023-06-02T08:56:06.741Z,65.03
2023-06-02T08:57:06.485Z,66.15
2023-06-02T08:58:06.466Z,66.39
2023-06-02T08:59:06.449Z,64.52
2023-06-02T09:00:06.460Z,63.65
2023-06-02T09:01:06.436Z,64.25
2023-06-02T09:02:06.479Z,67.97
2023-06-02T09:03:06.542Z,63.28
2023-06-02T09:04:08.305Z,64.04
2023-06-02T09:05:06.518Z,66.00
2023-06-02T09:06:06.713Z,66.49
2023-06-02T09:07:06.390Z,63.98
2023-06-02T09:08:06.438Z,63.01
2023-06-02T09:09:06.387Z,63.52
2023-06-02T09:10:06.478Z,63.21
2023-06-02T09:11:06.388Z,62.18
2023-06-02T09:12:06.373Z,63.28
2023-06-02T09:13:06.348Z,64.59
2023-06-02T09:14:06.345Z,64.79
2023-06-02T09:15:07.037Z,64.18
2023-06-02T09:16:06.497Z,63.75
2023-06-02T09:17:06.328Z,62.02
2023-06-02T09:18:06.357Z,61.79
2023-06-02T09:19:06.324Z,62.10
2023-06-02T09:20:06.288Z,63.59
2023-06-02T09:21:06.546Z,61.87
2023-06-02T09:22:06.430Z,64.64
2023-06-02T09:23:06.257Z,64.43
2023-06-02T09:25:06.276Z,65.34
2023-06-02T09:26:10.027Z,62.40
2023-06-02T09:27:07.221Z,61.74
2023-06-02T09:28:06.223Z,61.17
2023-06-02T09:29:06.203Z,61.14
2023-06-02T09:30:06.250Z,60.06
2023-06-02T09:31:06.551Z,61.25
2023-06-02T09:32:06.392Z,63.89
2023-06-02T09:33:06.235Z,60.49
2023-06-02T09:34:06.175Z,60.44
2023-06-02T09:35:06.171Z,60.42
2023-06-02T09:36:06.437Z,59.99
2023-06-02T09:37:06.133Z,59.75
2023-06-02T09:38:06.138Z,60.31
2023-06-02T09:39:06.110Z,63.32
2023-06-02T09:40:06.122Z,63.11
2023-06-02T09:41:06.100Z,61.76
2023-06-02T09:42:06.155Z,59.70
2023-06-02T09:43:06.172Z,61.53
2023-06-02T09:44:06.095Z,62.45
2023-06-02T09:45:06.085Z,61.60
2023-06-02T09:46:06.292Z,59.88
2023-06-02T09:47:06.195Z,59.95
2023-06-02T09:48:06.162Z,60.62
2023-06-02T09:49:06.171Z,61.66
2023-06-02T09:50:06.048Z,60.07
2023-06-02T09:51:06.028Z,64.36
2023-06-02T09:52:06.034Z,63.52
2023-06-02T09:53:06.049Z,61.69
2023-06-02T09:54:06.012Z,63.69
2023-06-02T09:55:05.990Z,60.14
2023-06-02T09:56:06.173Z,61.53
2023-06-02T09:57:06.067Z,60.44
2023-06-02T09:58:06.252Z,60.28
2023-06-02T09:59:06.005Z,60.49
2023-06-02T10:00:06.063Z,60.36
2023-06-02T10:01:06.163Z,59.12
2023-06-02T10:02:05.961Z,60.26
2023-06-02T10:03:06.225Z,59.34
2023-06-02T10:04:06.106Z,61.37
2023-06-02T10:05:06.182Z,59.32
2023-06-02T10:06:06.045Z,59.09
2023-06-02T10:07:05.889Z,60.03
2023-06-02T10:08:06.006Z,59.48
2023-06-02T10:09:05.895Z,59.43
2023-06-02T10:10:05.872Z,59.88
2023-06-02T10:11:06.003Z,59.30
2023-06-02T10:12:05.854Z,57.96
2023-06-02T10:13:05.844Z,59.36
2023-06-02T10:14:05.852Z,59.88
2023-06-02T10:15:05.837Z,60.16
2023-06-02T10:16:05.856Z,59.63
2023-06-02T10:17:05.860Z,57.85
2023-06-02T10:18:05.863Z,59.32
2023-06-02T10:19:05.782Z,59.16
2023-06-02T10:20:05.897Z,59.70
2023-06-02T10:21:06.056Z,59.16
2023-06-02T10:22:05.881Z,58.05
2023-06-02T10:23:05.882Z,57.80
2023-06-02T10:24:05.893Z,57.87
2023-06-02T10:25:05.754Z,58.69
2023-06-02T10:26:05.768Z,59.05
2023-06-02T10:27:05.772Z,59.85
2023-06-02T10:28:05.742Z,58.64
2023-06-02T10:29:05.724Z,57.29
2023-06-02T10:30:05.719Z,58.92
2023-06-02T10:31:05.912Z,56.76
2023-06-02T10:32:05.689Z,58.31
2023-06-02T10:33:05.718Z,57.09
2023-06-02T10:34:05.663Z,59.83
2023-06-02T10:35:05.649Z,57.29
2023-06-02T10:36:05.642Z,58.51
2023-06-02T10:37:05.651Z,57.29
2023-06-02T10:38:05.641Z,58.51
2023-06-02T10:39:05.639Z,57.54
2023-06-02T10:40:05.629Z,57.72
2023-06-02T10:41:05.815Z,55.77
2023-06-02T10:42:05.648Z,57.39
2023-06-02T10:43:05.595Z,56.91
2023-06-02T10:44:05.613Z,55.16
2023-06-02T10:45:05.634Z,57.31
2023-06-02T10:46:05.591Z,58.71
2023-06-02T10:47:05.591Z,59.67
2023-06-02T10:48:05.595Z,56.81
2023-06-02T10:49:05.549Z,58.47
2023-06-02T10:50:12.341Z,57.89
2023-06-02T10:51:06.717Z,57.16
2023-06-02T10:52:05.536Z,58.14
2023-06-02T10:53:05.529Z,55.29
2023-06-02T10:54:05.555Z,58.43
2023-06-02T10:55:05.537Z,57.69
2023-06-02T10:56:05.504Z,58.54
2023-06-02T10:57:05.505Z,57.36
2023-06-02T10:58:05.474Z,57.39
2023-06-02T10:59:05.465Z,57.65
2023-06-02T11:00:05.462Z,57.49
2023-06-02T11:01:05.778Z,58.00
2023-06-02T11:02:05.448Z,57.06
2023-06-02T11:03:05.516Z,57.56
2023-06-02T11:04:05.545Z,56.50
2023-06-02T11:05:05.402Z,58.14
2023-06-02T11:06:05.423Z,55.54
2023-06-02T11:07:05.413Z,54.63
2023-06-02T11:08:05.398Z,54.53
2023-06-02T11:09:05.379Z,57.18
2023-06-02T11:10:05.373Z,57.67
2023-06-02T11:11:05.360Z,55.14
2023-06-02T11:12:05.404Z,55.62
2023-06-02T11:13:05.380Z,57.14
2023-06-02T11:14:05.364Z,54.68
2023-06-02T11:15:05.481Z,55.79
2023-06-02T11:16:05.396Z,55.01
2023-06-02T11:17:05.357Z,55.34
2023-06-02T11:18:05.444Z,55.79
2023-06-02T11:19:05.284Z,55.65
2023-06-02T11:20:05.392Z,57.67
2023-06-02T11:21:05.476Z,57.09
2023-06-02T11:22:05.341Z,55.04
2023-06-02T11:23:05.295Z,56.90
2023-06-02T11:24:05.286Z,55.19
2023-06-02T11:25:05.271Z,54.71
2023-06-02T11:26:05.244Z,54.51
2023-06-02T11:27:05.240Z,55.77
2023-06-02T11:28:05.218Z,54.91
2023-06-02T11:29:05.256Z,52.80
2023-06-02T11:30:05.249Z,52.77
2023-06-02T11:31:05.492Z,54.43
2023-06-02T11:32:05.194Z,54.68
2023-06-02T11:33:05.417Z,52.89
2023-06-02T11:34:05.311Z,54.00
2023-06-02T11:35:05.216Z,54.50
2023-06-02T11:36:05.205Z,54.91
2023-06-02T11:37:05.160Z,52.84
2023-06-02T11:38:05.188Z,54.83
2023-06-02T11:39:05.167Z,54.33
2023-06-02T11:40:05.134Z,55.24
2023-06-02T11:41:05.860Z,53.92
2023-06-02T11:42:05.143Z,55.16
2023-06-02T11:43:05.112Z,55.19
2023-06-02T11:44:05.139Z,55.14
2023-06-02T11:45:06.928Z,53.90
2023-06-02T11:46:05.076Z,54.99
2023-06-02T11:47:05.078Z,52.06
2023-06-02T11:48:05.201Z,54.50
2023-06-02T11:49:05.135Z,54.68
2023-06-02T11:50:05.064Z,54.21
2023-06-02T11:51:05.041Z,53.88
2023-06-02T11:52:05.080Z,56.35
2023-06-02T11:53:05.030Z,55.08
2023-06-02T11:54:05.040Z,53.92
2023-06-02T11:55:05.120Z,53.20
2023-06-02T11:56:05.642Z,53.12
2023-06-02T11:57:05.011Z,54.15
2023-06-02T11:58:04.975Z,54.96
2023-06-02T11:59:04.962Z,53.30
2023-06-02T12:00:05.004Z,51.56
2023-06-02T12:01:04.966Z,52.04
2023-06-02T12:02:04.948Z,53.22
2023-06-02T12:03:05.045Z,53.20
2023-06-02T12:04:04.997Z,52.92
2023-06-02T12:05:04.951Z,52.11
2023-06-02T12:06:04.985Z,53.45
2023-06-02T12:07:05.050Z,53.40
2023-06-02T12:08:04.893Z,53.78
2023-06-02T12:09:04.893Z,52.72
2023-06-02T12:10:04.919Z,50.58
2023-06-02T12:11:05.135Z,54.58
2023-06-02T12:12:04.877Z,50.11
2023-06-02T12:13:04.867Z,50.79
2023-06-02T12:14:04.883Z,50.96
2023-06-02T12:15:04.910Z,50.81
2023-06-02T12:16:04.865Z,50.68
2023-06-02T12:17:04.850Z,52.89
2023-06-02T12:18:04.917Z,52.89
2023-06-02T12:19:04.895Z,51.99
2023-06-02T12:20:04.813Z,52.39
2023-06-02T12:21:04.960Z,52.39
2023-06-02T12:22:06.181Z,52.17
2023-06-02T12:23:04.788Z,51.26
2023-06-02T12:24:04.913Z,51.14
2023-06-02T12:25:04.834Z,51.26
2023-06-02T12:26:04.744Z,52.49
2023-06-02T12:27:04.906Z,54.83
2023-06-02T12:28:04.745Z,51.06
2023-06-02T12:29:04.784Z,52.67
2023-06-02T12:30:04.790Z,54.15
2023-06-02T12:31:05.187Z,52.64
2023-06-02T12:32:04.701Z,54.23
2023-06-02T12:33:04.871Z,54.00
2023-06-02T12:34:04.717Z,51.94
2023-06-02T12:35:04.700Z,50.21
2023-06-02T12:36:04.736Z,53.30
2023-06-02T12:37:04.679Z,53.34
2023-06-02T12:38:04.656Z,52.26
2023-06-02T12:39:04.656Z,53.25
2023-06-02T12:40:04.672Z,53.22
2023-06-02T12:41:04.968Z,53.07
2023-06-02T12:42:04.654Z,51.86
2023-06-02T12:43:04.630Z,52.80
2023-06-02T12:44:04.630Z,50.81
2023-06-02T12:45:04.608Z,52.32
2023-06-02T12:46:04.653Z,52.12
2023-06-02T12:47:04.646Z,52.14
2023-06-02T12:48:04.699Z,52.32
2023-06-02T12:49:04.587Z,51.29
2023-06-02T12:50:04.568Z,52.72
2023-06-02T12:51:06.206Z,51.81
2023-06-02T12:52:04.559Z,50.81
2023-06-02T12:53:04.553Z,51.11
2023-06-02T12:54:04.651Z,52.39